Time;durP1;ratioP1;P1;durP2;ratioP2;P2;SDS_P1;SDS_P2;PMS_P1;PMS_P2;Temp;Humidity;BMP_temperature;BMP_pressure;BME280_temperature;BME280_humidity;BME280_pressure;Samples;Min_cycle;Max_cycle;Signal;HPM_P1;HPM_P2
2023/04/11 00:03:37;;;;;;;44.30;26.20;;;;;;;8.20;100.00;100565.14;217447;1291;139424;-86
2023/04/11 00:08:37;;;;;;;47.20;25.80;;;;;;;8.16;100.00;100560.41;218143;1291;138832;-86
2023/04/11 00:13:38;;;;;;;51.20;29.70;;;;;;;8.12;100.00;100552.80;217626;1291;139236;-85
2023/04/11 00:18:38;;;;;;;51.40;29.90;;;;;;;8.05;100.00;100549.05;218195;1289;139348;-85
2023/04/11 00:23:38;;;;;;;52.20;29.30;;;;;;;8.00;100.00;100539.92;217592;1291;139044;-85
2023/04/11 00:28:39;;;;;;;52.40;31.00;;;;;;;7.92;100.00;100538.17;218199;1291;105717;-86
2023/04/11 00:33:39;;;;;;;54.30;30.60;;;;;;;7.86;100.00;100535.28;217615;1291;139327;-85
2023/04/11 00:38:41;;;;;;;52.40;28.90;;;;;;;7.82;100.00;100528.84;218087;1290;139219;-85
2023/04/11 00:43:41;;;;;;;55.20;31.50;;;;;;;7.79;100.00;100523.39;217619;1290;139079;-85
2023/04/11 00:48:42;;;;;;;51.60;28.20;;;;;;;7.78;100.00;100514.43;218168;1290;139697;-86
2023/04/11 00:53:44;;;;;;;52.70;29.90;;;;;;;7.75;100.00;100512.02;217472;1291;139026;-85
2023/04/11 00:58:45;;;;;;;52.90;29.10;;;;;;;7.73;100.00;100500.92;218221;1290;108816;-85
2023/04/11 01:03:46;;;;;;;48.70;28.50;;;;;;;7.70;100.00;100486.38;217624;1291;138936;-85
2023/04/11 01:08:46;;;;;;;50.80;28.20;;;;;;;7.68;100.00;100474.61;217840;1290;139959;-85
2023/04/11 01:13:48;;;;;;;54.10;30.70;;;;;;;7.65;100.00;100463.34;218130;1291;139229;-86
2023/04/11 01:18:49;;;;;;;48.80;29.40;;;;;;;7.63;100.00;100458.17;217595;1291;138962;-86
2023/04/11 01:23:51;;;;;;;48.80;27.80;;;;;;;7.59;100.00;100453.02;218059;1291;138962;-85
2023/04/11 01:28:52;;;;;;;52.90;28.60;;;;;;;7.56;100.00;100451.98;217648;1290;139316;-85
2023/04/11 01:33:52;;;;;;;47.40;27.80;;;;;;;7.54;100.00;100442.56;218154;1290;139205;-85
2023/04/11 01:38:53;;;;;;;58.20;30.40;;;;;;;7.51;100.00;100432.31;217585;1291;139152;-85
2023/04/11 01:43:53;;;;;;;82.80;39.40;;;;;;;7.50;100.00;100425.64;218048;1290;139892;-85
2023/04/11 01:48:54;;;;;;;86.90;44.10;;;;;;;7.47;100.00;100420.80;217649;1290;139127;-85
2023/04/11 01:53:55;;;;;;;94.10;49.50;;;;;;;7.43;100.00;100416.34;218110;1291;138939;-86
2023/04/11 01:58:57;;;;;;;90.20;48.60;;;;;;;7.38;100.00;100398.70;217720;1290;139418;-86
2023/04/11 02:03:58;;;;;;;78.40;40.30;;;;;;;7.36;100.00;100395.66;218047;1290;138913;-85
2023/04/11 02:08:58;;;;;;;56.80;32.10;;;;;;;7.35;100.00;100391.98;217588;1290;138941;-85
2023/04/11 02:14:01;;;;;;;53.40;31.50;;;;;;;7.36;100.00;100386.35;218147;1291;140007;-85
2023/04/11 02:19:02;;;;;;;59.10;31.80;;;;;;;7.35;100.00;100380.80;217614;1290;139881;-85
2023/04/11 02:24:02;;;;;;;51.70;29.80;;;;;;;7.36;100.00;100376.73;218177;1291;139131;-84
2023/04/11 02:29:03;;;;;;;52.00;29.00;;;;;;;7.37;100.00;100374.27;217719;1290;139648;-85
2023/04/11 02:34:03;;;;;;;55.80;29.60;;;;;;;7.39;100.00;100369.00;218140;1290;138938;-85
2023/04/11 02:39:04;;;;;;;49.50;27.10;;;;;;;7.42;100.00;100359.74;217655;1291;140602;-85
2023/04/11 02:44:04;;;;;;;51.90;29.50;;;;;;;7.43;100.00;100346.96;218186;1290;139255;-85
2023/04/11 02:49:05;;;;;;;52.80;29.70;;;;;;;7.46;100.00;100341.15;217598;1291;139414;-85
2023/04/11 02:54:06;;;;;;;52.30;30.20;;;;;;;7.51;100.00;100337.34;218104;1290;139069;-84
2023/04/11 02:59:06;;;;;;;54.10;30.90;;;;;;;7.56;100.00;100330.88;217682;1291;140095;-84
2023/04/11 03:04:07;;;;;;;55.80;30.00;;;;;;;7.61;100.00;100322.45;218078;1291;139027;-85
2023/04/11 03:09:07;;;;;;;50.50;28.50;;;;;;;7.65;100.00;100304.86;217552;1291;139663;-84
2023/04/11 03:14:08;;;;;;;54.00;30.00;;;;;;;7.68;100.00;100294.99;218113;1291;139000;-83
2023/04/11 03:19:08;;;;;;;55.30;32.80;;;;;;;7.73;100.00;100292.48;217578;1290;139538;-85
2023/04/11 03:24:11;;;;;;;57.30;30.50;;;;;;;7.78;100.00;100284.70;218119;1290;140083;-85
2023/04/11 03:29:11;;;;;;;57.30;31.50;;;;;;;7.85;100.00;100275.98;217705;1291;139784;-83
2023/04/11 03:34:12;;;;;;;53.80;29.70;;;;;;;7.90;100.00;100271.01;217994;1291;140171;-84
2023/04/11 03:39:12;;;;;;;61.10;31.10;;;;;;;7.94;100.00;100265.51;217569;1290;142107;-85
2023/04/11 03:44:13;;;;;;;58.60;31.20;;;;;;;7.97;100.00;100249.60;218163;1291;138962;-84
2023/04/11 03:49:13;;;;;;;56.10;30.50;;;;;;;7.99;100.00;100236.33;217572;1291;139578;-84
2023/04/11 03:54:14;;;;;;;58.30;31.20;;;;;;;7.98;100.00;100224.90;218141;1291;139533;-84
2023/04/11 03:59:14;;;;;;;51.60;29.30;;;;;;;8.00;100.00;100211.91;217700;1291;140626;-84
2023/04/11 04:04:14;;;;;;;51.70;29.30;;;;;;;8.02;100.00;100205.45;218111;1291;140060;-84
2023/04/11 04:09:15;;;;;;;53.30;29.50;;;;;;;8.04;100.00;100197.43;217613;1291;139831;-84
2023/04/11 04:14:15;;;;;;;54.10;29.70;;;;;;;8.07;100.00;100192.53;218038;1291;138955;-86
2023/04/11 04:19:16;;;;;;;55.00;30.30;;;;;;;8.12;100.00;100185.96;217318;1291;268381;-84
2023/04/11 04:24:17;;;;;;;52.20;28.60;;;;;;;8.17;100.00;100185.66;217969;1293;139188;-85
2023/04/11 04:29:18;;;;;;;48.40;27.70;;;;;;;8.20;100.00;100186.14;217623;1291;138770;-85
2023/04/11 04:34:20;;;;;;;52.90;28.30;;;;;;;8.24;100.00;100189.64;218086;1291;138940;-86
2023/04/11 04:39:21;;;;;;;52.10;29.10;;;;;;;8.26;100.00;100187.02;217538;1291;139741;-85
2023/04/11 04:44:21;;;;;;;53.00;28.80;;;;;;;8.27;100.00;100166.76;218167;1291;139154;-85
2023/04/11 04:49:22;;;;;;;48.80;27.10;;;;;;;8.28;100.00;100158.77;217533;1291;140310;-84
2023/04/11 04:54:22;;;;;;;50.10;28.30;;;;;;;8.28;100.00;100153.77;218005;1291;138936;-84
2023/04/11 04:59:23;;;;;;;51.00;27.50;;;;;;;8.31;100.00;100144.27;217554;1291;139268;-86
2023/04/11 05:04:23;;;;;;;53.40;28.00;;;;;;;8.35;100.00;100139.30;218013;1291;140019;-84
2023/04/11 05:09:23;;;;;;;53.40;27.90;;;;;;;8.40;100.00;100126.77;217509;1291;139539;-84
2023/04/11 05:14:24;;;;;;;52.20;27.10;;;;;;;8.46;100.00;100110.31;217903;1292;139633;-85
2023/04/11 05:19:24;;;;;;;47.20;28.10;;;;;;;8.50;100.00;100099.27;217487;1291;139726;-84
2023/04/11 05:24:25;;;;;;;52.10;27.40;;;;;;;8.54;100.00;100097.75;218027;1292;139570;-84
2023/04/11 05:29:26;;;;;;;47.10;27.30;;;;;;;8.58;100.00;100098.43;217595;1292;139520;-84
2023/04/11 05:34:30;;;;;;;49.90;27.90;;;;;;;8.61;100.00;100097.45;217888;1291;139185;-85
2023/04/11 05:39:30;;;;;;;49.90;27.80;;;;;;;8.61;100.00;100084.44;217427;1291;139369;-87
2023/04/11 05:44:31;;;;;;;47.40;27.70;;;;;;;8.61;100.00;100077.70;217991;1291;139544;-85
2023/04/11 05:49:31;;;;;;;53.90;30.60;;;;;;;8.62;100.00;100071.20;217486;1291;140334;-87
2023/04/11 05:54:34;;;;;;;53.00;29.80;;;;;;;8.65;100.00;100069.05;217830;1291;139461;-85
2023/04/11 05:59:34;;;;;;;50.70;29.20;;;;;;;8.68;100.00;100060.55;217450;1290;139606;-88
2023/04/11 06:04:35;;;;;;;54.00;28.50;;;;;;;8.72;100.00;100059.11;217849;1291;96422;-86
2023/04/11 06:09:35;;;;;;;51.00;26.60;;;;;;;8.76;100.00;100066.69;217279;1293;140089;-87
2023/04/11 06:14:37;;;;;;;49.00;27.50;;;;;;;8.82;100.00;100060.64;217777;1291;139609;-85
2023/04/11 06:19:37;;;;;;;47.20;27.40;;;;;;;8.88;100.00;100063.46;217378;1291;139797;-86
2023/04/11 06:24:39;;;;;;;47.60;27.50;;;;;;;8.96;100.00;100054.29;218050;1290;139398;-86
2023/04/11 06:29:42;;;;;;;47.00;25.70;;;;;;;9.05;100.00;100038.94;217557;1291;141826;-87
2023/04/11 06:34:42;;;;;;;49.90;27.20;;;;;;;9.13;100.00;100038.58;218114;1290;96785;-87
2023/04/11 06:39:43;;;;;;;44.00;25.20;;;;;;;9.23;100.00;100036.94;217480;1291;139477;-86
2023/04/11 06:44:44;;;;;;;44.50;27.20;;;;;;;9.32;100.00;100034.60;218048;1291;138835;-85
2023/04/11 06:49:45;;;;;;;44.60;25.20;;;;;;;9.42;100.00;100028.91;217526;1291;140519;-86
2023/04/11 06:54:46;;;;;;;40.90;24.60;;;;;;;9.51;100.00;100017.68;218043;1291;138844;-87
2023/04/11 06:59:47;;;;;;;41.10;23.20;;;;;;;9.61;100.00;100010.15;217504;1290;140422;-86
2023/04/11 07:04:47;;;;;;;43.60;25.60;;;;;;;9.70;100.00;100005.11;218087;1291;96029;-87
2023/04/11 07:09:47;;;;;;;56.80;26.30;;;;;;;9.82;100.00;100000.02;217440;1291;139472;-87
2023/04/11 07:14:48;;;;;;;41.70;23.40;;;;;;;9.92;100.00;99986.58;218127;1291;138872;-87
2023/04/11 07:19:49;;;;;;;39.20;23.40;;;;;;;10.02;100.00;99979.90;217545;1291;139386;-88
2023/04/11 07:24:54;;;;;;;44.60;25.10;;;;;;;10.14;100.00;99969.46;218040;1291;139476;-88
2023/04/11 07:29:55;;;;;;;44.20;25.10;;;;;;;10.27;100.00;99954.52;217532;1290;139889;-86
2023/04/11 07:34:55;;;;;;;46.10;26.00;;;;;;;10.43;100.00;99951.98;218164;1290;96559;-88
2023/04/11 07:39:55;;;;;;;41.60;24.00;;;;;;;10.58;100.00;99946.40;217537;1291;139261;-88
2023/04/11 07:44:56;;;;;;;37.90;24.20;;;;;;;10.75;99.99;99943.38;217978;1291;139048;-88
2023/04/11 07:49:57;;;;;;;40.20;23.80;;;;;;;10.92;99.81;99939.23;217599;1291;139110;-89
2023/04/11 07:54:58;;;;;;;40.00;23.60;;;;;;;11.13;99.51;99936.76;217983;1294;138974;-89
2023/04/11 07:59:58;;;;;;;47.90;25.20;;;;;;;11.31;98.82;99935.11;217527;1292;139009;-89
2023/04/11 08:04:59;;;;;;;44.00;26.60;;;;;;;11.50;98.12;99928.49;218199;1291;96087;-90
2023/04/11 08:09:59;;;;;;;40.00;25.00;;;;;;;11.67;97.35;99932.36;217380;1291;142575;-87
2023/04/11 08:15:00;;;;;;;43.90;24.90;;;;;;;11.83;96.90;99931.01;217935;1292;138822;-87
2023/04/11 08:20:00;;;;;;;36.90;21.60;;;;;;;12.01;95.73;99922.37;217373;1295;139562;-89
2023/04/11 08:25:01;;;;;;;37.40;21.40;;;;;;;12.13;94.01;99921.08;217881;1291;138871;-89
2023/04/11 08:30:02;;;;;;;36.20;22.00;;;;;;;12.18;92.93;99911.67;217276;1291;139576;-88
2023/04/11 08:35:04;;;;;;;33.70;20.30;;;;;;;12.26;92.65;99913.30;217924;1292;96009;-88
2023/04/11 08:40:05;;;;;;;35.00;21.40;;;;;;;12.39;92.22;99909.94;217323;1292;139154;-88
2023/04/11 08:45:08;;;;;;;37.00;21.10;;;;;;;12.53;91.37;99908.21;217909;1292;138772;-87
2023/04/11 08:50:08;;;;;;;35.60;19.20;;;;;;;12.65;90.76;99892.38;217440;1291;139273;-87
2023/04/11 08:55:09;;;;;;;29.70;17.00;;;;;;;12.78;90.05;99885.02;217922;1292;138816;-86
2023/04/11 09:00:12;;;;;;;32.50;16.60;;;;;;;12.91;88.19;99883.45;217392;1291;139531;-84
2023/04/11 09:05:27;;;;;;;32.10;17.60;;;;;;;13.00;87.39;99880.88;218048;1291;96063;-88
2023/04/11 09:10:27;;;;;;;30.90;17.50;;;;;;;13.12;86.50;99878.50;217335;1291;139830;-88
2023/04/11 09:15:30;;;;;;;30.60;18.40;;;;;;;13.24;85.28;99876.91;217904;1294;138757;-88
2023/04/11 09:20:31;;;;;;;29.60;18.10;;;;;;;13.33;84.88;99878.31;217238;1292;139336;-88
2023/04/11 09:25:43;;;;;;;29.10;15.20;;;;;;;13.36;83.64;99873.56;217850;1294;139039;-89
2023/04/11 09:30:53;;;;;;;26.40;16.40;;;;;;;13.41;82.88;99867.18;217110;1295;139144;-89
2023/04/11 09:35:55;;;;;;;29.10;16.50;;;;;;;13.42;82.03;99863.86;217812;1292;140193;-89
2023/04/11 09:40:57;;;;;;;30.60;18.00;;;;;;;13.54;81.89;99856.16;217390;1295;140077;-88
2023/04/11 09:46:08;;;;;;;27.70;16.30;;;;;;;13.72;81.89;99849.50;217846;1292;138919;-87
2023/04/11 09:51:09;;;;;;;25.70;16.30;;;;;;;14.00;80.64;99840.70;217353;1291;139418;-88
2023/04/11 09:56:10;;;;;;;26.30;16.60;;;;;;;14.19;79.74;99831.48;217934;1291;139144;-87
2023/04/11 10:01:12;;;;;;;27.30;16.10;;;;;;;14.31;78.59;99828.73;217438;1292;140075;-91
2023/04/11 10:06:30;;;;;;;30.40;16.50;;;;;;;14.42;77.51;99817.58;218058;1292;140366;-90
2023/04/11 10:11:30;;;;;;;26.50;17.10;;;;;;;14.53;76.00;99817.72;217576;1292;138942;-88
2023/04/11 10:16:32;;;;;;;28.10;17.70;;;;;;;14.64;75.86;99813.69;217835;1292;138929;-88
2023/04/11 10:21:36;;;;;;;27.70;17.20;;;;;;;14.78;74.53;99813.06;217402;1291;139171;-89
2023/04/11 10:26:57;;;;;;;30.40;18.40;;;;;;;14.93;74.12;99815.77;217890;1294;139701;-85
2023/04/11 10:32:18;;;;;;;26.10;16.50;;;;;;;15.02;72.14;99815.21;217417;1291;139671;-87
2023/04/11 10:37:28;;;;;;;27.50;16.90;;;;;;;15.05;71.31;99822.12;217885;1292;139187;-85
2023/04/11 10:42:33;;;;;;;30.10;17.60;;;;;;;15.07;71.19;99814.09;217422;1292;139524;-87
2023/04/11 10:47:33;;;;;;;27.70;17.60;;;;;;;15.16;71.15;99808.95;217981;1292;138104;-87
2023/04/11 10:52:37;;;;;;;26.70;17.30;;;;;;;15.21;70.24;99809.50;217672;1291;138933;-90
2023/04/11 10:58:07;;;;;;;25.00;15.70;;;;;;;15.23;68.94;99809.14;218051;1292;137951;-89
2023/04/11 11:03:14;;;;;;;26.80;16.50;;;;;;;15.09;68.83;99808.02;217468;1291;138658;-87
2023/04/11 11:08:26;;;;;;;27.50;16.80;;;;;;;14.96;70.50;99803.75;217933;1292;138138;-87
2023/04/11 11:13:51;;;;;;;26.20;15.30;;;;;;;14.97;70.03;99806.84;217397;1292;138970;-86
2023/04/11 11:18:57;;;;;;;22.30;15.50;;;;;;;14.81;70.80;99813.11;217274;1292;138668;-86
2023/04/11 11:24:00;;;;;;;24.70;15.60;;;;;;;14.66;71.39;99816.96;217890;1291;138725;-85
2023/04/11 11:29:01;;;;;;;19.40;11.10;;;;;;;14.48;72.44;99818.98;217689;1291;138641;-85
2023/04/11 11:34:02;;;;;;;16.70;9.70;;;;;;;14.24;73.11;99829.44;218057;1290;138269;-85
2023/04/11 11:39:04;;;;;;;13.30;8.00;;;;;;;13.97;73.63;99821.95;217553;1291;139181;-85
2023/04/11 11:44:05;;;;;;;14.00;8.80;;;;;;;13.72;74.76;99823.98;217911;1291;138338;-86
2023/04/11 11:49:07;;;;;;;14.10;8.40;;;;;;;13.56;75.82;99821.47;217405;1291;139937;-86
2023/04/11 11:54:09;;;;;;;15.80;8.10;;;;;;;13.56;76.67;99827.39;218085;1290;138880;-86
2023/04/11 11:59:10;;;;;;;17.40;9.20;;;;;;;13.45;76.29;99826.95;217568;1290;138938;-84
2023/04/11 12:04:11;;;;;;;14.30;8.50;;;;;;;13.21;76.51;99839.19;218091;1291;138531;-84
2023/04/11 12:09:12;;;;;;;15.40;8.10;;;;;;;12.95;77.55;99835.60;217527;1290;139464;-86
2023/04/11 12:14:21;;;;;;;17.00;7.80;;;;;;;12.74;77.88;99834.10;218023;1293;138963;-85
2023/04/11 12:19:22;;;;;;;18.70;8.30;;;;;;;12.56;79.05;99825.30;217385;1291;139431;-84
2023/04/11 12:24:23;;;;;;;14.60;8.50;;;;;;;12.56;79.91;99823.17;218033;1291;138705;-83
2023/04/11 12:29:23;;;;;;;14.30;8.40;;;;;;;12.53;80.52;99826.51;217652;1291;139848;-84
2023/04/11 12:34:23;;;;;;;16.50;8.90;;;;;;;12.31;82.08;99826.88;218136;1290;139022;-84
2023/04/11 12:39:24;;;;;;;17.10;9.40;;;;;;;12.14;84.72;99834.53;217555;1291;139200;-86
2023/04/11 12:44:25;;;;;;;17.00;10.30;;;;;;;11.93;86.72;99835.33;218003;1291;139555;-87
2023/04/11 12:49:27;;;;;;;17.60;10.70;;;;;;;11.79;88.00;99840.66;217721;1291;139403;-90
2023/04/11 12:54:27;;;;;;;20.00;11.50;;;;;;;11.53;89.57;99850.00;218209;1290;139315;-91
2023/04/11 12:59:28;;;;;;;16.60;9.70;;;;;;;11.37;90.57;99854.19;217821;1291;139184;-91
2023/04/11 13:04:29;;;;;;;14.00;7.80;;;;;;;11.28;91.79;99855.39;218194;1291;138901;-93
2023/04/11 13:09:30;;;;;;;11.40;6.50;;;;;;;11.07;91.96;99858.30;217520;1291;139151;-88
2023/04/11 13:14:31;;;;;;;14.90;8.60;;;;;;;10.89;92.99;99866.09;217987;1291;138868;-88
2023/04/11 13:19:31;;;;;;;13.50;7.40;;;;;;;10.74;93.13;99868.91;217372;1291;139244;-87
2023/04/11 13:24:32;;;;;;;11.70;6.30;;;;;;;10.57;93.86;99870.30;218101;1291;138764;-86
2023/04/11 13:29:33;;;;;;;15.50;9.20;;;;;;;10.53;94.84;99869.02;217442;1290;138939;-86
2023/04/11 13:34:33;;;;;;;13.70;7.90;;;;;;;10.43;95.63;99866.50;218028;1291;96240;-86
2023/04/11 13:39:34;;;;;;;13.70;6.50;;;;;;;10.31;96.66;99862.52;217465;1291;139329;-85
2023/04/11 13:44:34;;;;;;;13.60;6.30;;;;;;;10.18;97.29;99858.79;218015;1290;138661;-84
2023/04/11 13:49:35;;;;;;;10.30;4.50;;;;;;;10.03;97.59;99863.04;217526;1290;139750;-85
2023/04/11 13:54:37;;;;;;;8.60;3.80;;;;;;;9.98;98.01;99874.16;218119;1291;138728;-88
2023/04/11 13:59:38;;;;;;;9.30;4.70;;;;;;;9.98;98.75;99878.86;217553;1291;138774;-89
2023/04/11 14:04:38;;;;;;;6.30;2.80;;;;;;;9.95;98.51;99888.83;218125;1291;96155;-88
2023/04/11 14:09:40;;;;;;;6.20;2.90;;;;;;;9.90;98.45;99898.38;217623;1291;138913;-89
2023/04/11 14:14:41;;;;;;;7.80;2.80;;;;;;;9.86;98.42;99897.83;218056;1291;138898;-88
2023/04/11 14:19:41;;;;;;;5.50;2.60;;;;;;;9.86;98.40;99895.61;217611;1291;138689;-87
2023/04/11 14:24:42;;;;;;;6.80;2.20;;;;;;;9.85;98.14;99895.05;218126;1290;138379;-88
2023/04/11 14:29:43;;;;;;;6.50;2.70;;;;;;;9.82;97.97;99895.67;217528;1291;139024;-88
2023/04/11 14:34:43;;;;;;;5.90;2.30;;;;;;;9.81;98.05;99900.38;218296;1290;96075;-87
2023/04/11 14:39:44;;;;;;;7.70;3.50;;;;;;;9.87;98.07;99902.68;217578;1291;139182;-87
2023/04/11 14:44:44;;;;;;;34.70;19.30;;;;;;;9.92;98.57;99905.85;217880;1291;138862;-88
2023/04/11 14:49:45;;;;;;;19.30;10.20;;;;;;;9.96;98.81;99904.31;217492;1291;139817;-87
2023/04/11 14:54:45;;;;;;;11.70;6.10;;;;;;;9.99;98.99;99903.39;218088;1291;139081;-87
2023/04/11 14:59:47;;;;;;;11.50;5.50;;;;;;;10.05;98.99;99903.83;217432;1291;138880;-89
2023/04/11 15:04:47;;;;;;;11.80;4.70;;;;;;;10.05;99.05;99897.08;218163;1291;106918;-90
2023/04/11 15:09:48;;;;;;;11.40;5.00;;;;;;;10.02;98.99;99883.70;217575;1291;139308;-89
2023/04/11 15:14:48;;;;;;;8.90;3.80;;;;;;;10.02;98.85;99877.31;217975;1291;139448;-88
2023/04/11 15:19:49;;;;;;;8.30;3.90;;;;;;;9.98;98.69;99876.67;217586;1291;138716;-89
2023/04/11 15:24:50;;;;;;;8.90;3.80;;;;;;;9.91;99.34;99885.60;218076;1291;138923;-90
2023/04/11 15:29:50;;;;;;;8.90;3.90;;;;;;;9.87;99.49;99889.27;217667;1290;138817;-90
2023/04/11 15:34:51;;;;;;;8.80;4.40;;;;;;;9.83;99.69;99892.94;217940;1291;96183;-90
2023/04/11 15:39:52;;;;;;;8.30;4.10;;;;;;;9.78;99.87;99888.27;217542;1291;138503;-89
2023/04/11 15:44:52;;;;;;;8.70;4.30;;;;;;;9.77;99.95;99878.91;218039;1291;138073;-87
2023/04/11 15:49:53;;;;;;;8.40;3.70;;;;;;;9.78;100.00;99877.20;217564;1291;139250;-90
2023/04/11 15:54:53;;;;;;;8.30;3.80;;;;;;;9.80;100.00;99875.16;217885;1291;138531;-89
2023/04/11 15:59:54;;;;;;;8.10;3.70;;;;;;;9.85;100.00;99878.02;217658;1291;138980;-90
2023/04/11 16:04:55;;;;;;;10.00;4.30;;;;;;;9.87;100.00;99878.64;218131;1291;96080;-90
2023/04/11 16:09:55;;;;;;;7.60;3.40;;;;;;;9.88;100.00;99874.10;217588;1290;138698;-90
2023/04/11 16:14:56;;;;;;;9.10;3.80;;;;;;;9.89;99.99;99876.86;217702;1291;546742;-89
2023/04/11 16:19:56;;;;;;;8.70;4.00;;;;;;;9.87;100.00;99878.34;217628;1290;138515;-90
2023/04/11 16:24:57;;;;;;;12.60;6.70;;;;;;;9.86;100.00;99885.55;218043;1291;138484;-90
2023/04/11 16:30:00;;;;;;;12.10;5.90;;;;;;;9.82;100.00;99884.60;217516;1291;138927;-90
2023/04/11 16:35:00;;;;;;;10.80;6.20;;;;;;;9.79;100.00;99878.77;218251;1291;95923;-90
2023/04/11 16:40:00;;;;;;;10.30;4.40;;;;;;;9.76;100.00;99877.98;217406;1291;139076;-89
2023/04/11 16:45:01;;;;;;;10.80;5.40;;;;;;;9.77;100.00;99882.38;218079;1290;139129;-89
2023/04/11 16:50:02;;;;;;;12.60;7.00;;;;;;;9.77;100.00;99889.67;217574;1291;139148;-89
2023/04/11 16:55:03;;;;;;;14.80;8.20;;;;;;;9.72;100.00;99896.55;218039;1290;139237;-89
2023/04/11 17:00:14;;;;;;;15.20;8.40;;;;;;;9.68;100.00;99892.77;217646;1291;138952;-89
2023/04/11 17:05:17;;;;;;;15.50;8.10;;;;;;;9.67;100.00;99896.74;218233;1291;106610;-89
2023/04/11 17:10:19;;;;;;;15.90;8.00;;;;;;;9.64;100.00;99904.19;217600;1290;139486;-89
2023/04/11 17:15:20;;;;;;;16.00;9.00;;;;;;;9.57;100.00;99903.45;217942;1290;139433;-89
2023/04/11 17:20:22;;;;;;;18.10;9.50;;;;;;;9.48;100.00;99911.85;217503;1290;138962;-89
2023/04/11 17:25:22;;;;;;;16.80;10.00;;;;;;;9.45;100.00;99915.13;217948;1291;138654;-88
2023/04/11 17:30:23;;;;;;;18.80;9.40;;;;;;;9.39;100.00;99917.38;217565;1291;139346;-89
2023/04/11 17:35:23;;;;;;;18.50;10.30;;;;;;;9.34;100.00;99911.05;218266;1291;96560;-89
2023/04/11 17:40:24;;;;;;;13.90;7.40;;;;;;;9.21;100.00;99916.29;217650;1290;138565;-89
2023/04/11 17:45:25;;;;;;;17.40;8.80;;;;;;;9.14;100.00;99917.01;218172;1290;139001;-88
2023/04/11 17:50:26;;;;;;;15.20;6.90;;;;;;;9.08;100.00;99918.05;217441;1290;139147;-88
2023/04/11 17:55:26;;;;;;;11.20;5.10;;;;;;;8.98;100.00;99922.59;217979;1290;139310;-88
2023/04/11 18:00:29;;;;;;;12.90;5.60;;;;;;;8.90;100.00;99929.55;217636;1290;138700;-89
2023/04/11 18:05:32;;;;;;;14.70;6.30;;;;;;;8.79;100.00;99942.71;218312;1291;96071;-88
2023/04/11 18:10:33;;;;;;;10.70;4.70;;;;;;;8.67;100.00;99948.92;217619;1291;138493;-88
2023/04/11 18:15:33;;;;;;;13.20;4.80;;;;;;;8.57;100.00;99953.76;217901;1290;138614;-88
2023/04/11 18:20:34;;;;;;;12.20;5.10;;;;;;;8.46;100.00;99961.77;217539;1291;138948;-87
2023/04/11 18:25:35;;;;;;;20.00;10.20;;;;;;;8.35;100.00;99964.37;218149;1290;138579;-88
2023/04/11 18:30:35;;;;;;;12.40;6.20;;;;;;;8.28;100.00;99969.06;217604;1291;139051;-87
2023/04/11 18:35:36;;;;;;;12.10;5.60;;;;;;;8.18;100.00;99982.08;218024;1290;138433;-88
2023/04/11 18:40:36;;;;;;;10.50;5.10;;;;;;;8.11;100.00;99989.09;217652;1294;139111;-87
2023/04/11 18:45:37;;;;;;;10.50;4.30;;;;;;;8.05;100.00;99993.95;218041;1291;138391;-86
2023/04/11 18:50:41;;;;;;;8.90;4.30;;;;;;;7.97;100.00;99998.13;217583;1291;138902;-87
2023/04/11 18:55:42;;;;;;;9.00;4.40;;;;;;;7.90;100.00;100005.53;218022;1291;138573;-88
2023/04/11 19:00:42;;;;;;;7.70;3.30;;;;;;;7.81;100.00;100002.73;217491;1291;138656;-87
2023/04/11 19:05:44;;;;;;;8.50;3.30;;;;;;;7.73;100.00;100008.56;218124;1290;138601;-87
2023/04/11 19:10:44;;;;;;;8.30;3.40;;;;;;;7.66;100.00;100006.58;217575;1291;139305;-88
2023/04/11 19:15:45;;;;;;;8.70;3.80;;;;;;;7.60;100.00;100008.76;218118;1290;138391;-88
2023/04/11 19:20:47;;;;;;;8.00;3.70;;;;;;;7.53;100.00;100012.33;217591;1290;140941;-88
2023/04/11 19:25:48;;;;;;;8.70;3.50;;;;;;;7.47;100.00;100015.50;217915;1291;138808;-89
2023/04/11 19:30:49;;;;;;;11.40;3.80;;;;;;;7.40;100.00;100010.77;217566;1291;139427;-87
2023/04/11 19:35:49;;;;;;;9.80;4.10;;;;;;;7.33;100.00;100012.05;218028;1291;139121;-88
2023/04/11 19:40:50;;;;;;;12.40;4.80;;;;;;;7.27;100.00;100009.30;217482;1294;138485;-91
2023/04/11 19:45:51;;;;;;;9.90;4.20;;;;;;;7.17;100.00;100016.55;217995;1291;138608;-90
2023/04/11 19:50:53;;;;;;;10.90;4.60;;;;;;;7.11;100.00;100011.74;217627;1291;138548;-88
2023/04/11 19:55:54;;;;;;;9.30;4.50;;;;;;;7.08;100.00;100012.63;217923;1291;138747;-90
2023/04/11 20:00:54;;;;;;;13.60;4.40;;;;;;;7.05;100.00;100011.64;217473;1291;138725;-89
2023/04/11 20:05:55;;;;;;;9.50;4.40;;;;;;;7.04;100.00;100015.59;218120;1291;138699;-89
2023/04/11 20:10:56;;;;;;;11.30;5.80;;;;;;;7.02;100.00;100016.66;217710;1291;138846;-90
2023/04/11 20:15:56;;;;;;;11.50;4.90;;;;;;;7.01;100.00;100020.62;218044;1291;138750;-89
2023/04/11 20:20:57;;;;;;;11.00;4.80;;;;;;;7.01;100.00;100026.02;217478;1291;139718;-90
2023/04/11 20:25:57;;;;;;;12.70;5.30;;;;;;;7.00;100.00;100024.29;218026;1291;138690;-89
2023/04/11 20:30:58;;;;;;;11.00;4.80;;;;;;;7.01;100.00;100021.86;217364;1291;139157;-90
2023/04/11 20:36:01;;;;;;;14.50;5.20;;;;;;;7.02;100.00;100028.00;217971;1291;140777;-89
2023/04/11 20:41:04;;;;;;;13.60;5.30;;;;;;;7.03;100.00;100032.23;217720;1291;138913;-90
2023/04/11 20:46:07;;;;;;;11.80;5.50;;;;;;;7.03;100.00;100037.55;217966;1291;138738;-90
2023/04/11 20:51:08;;;;;;;11.30;5.50;;;;;;;7.03;100.00;100037.08;217498;1291;138849;-91
2023/04/11 20:56:10;;;;;;;11.00;5.20;;;;;;;7.03;100.00;100043.80;218019;1290;138847;-91
2023/04/11 21:01:12;;;;;;;10.40;4.20;;;;;;;7.03;100.00;100043.65;217351;1291;139472;-90
2023/04/11 21:06:12;;;;;;;13.00;4.30;;;;;;;7.04;100.00;100046.02;217951;1291;138656;-92
2023/04/11 21:11:13;;;;;;;11.40;5.20;;;;;;;7.03;100.00;100047.55;217509;1291;139115;-87
2023/04/11 21:16:14;;;;;;;11.90;6.00;;;;;;;7.02;100.00;100050.80;218056;1291;139333;-93
2023/04/11 21:21:15;;;;;;;12.40;4.50;;;;;;;7.01;100.00;100053.22;217507;1290;142670;-91
2023/04/11 21:26:17;;;;;;;11.70;4.80;;;;;;;7.01;100.00;100052.89;217877;1291;139370;-92
2023/04/11 21:31:18;;;;;;;10.80;4.60;;;;;;;7.00;100.00;100052.02;217525;1291;139495;-92
2023/04/11 21:36:18;;;;;;;11.90;4.90;;;;;;;6.99;100.00;100049.90;218181;1290;139545;-91
2023/04/11 21:41:19;;;;;;;12.30;6.00;;;;;;;6.98;100.00;100054.34;217637;1291;139239;-93
2023/04/11 21:46:20;;;;;;;10.40;5.80;;;;;;;6.93;100.00;100061.20;218134;1291;139178;-93
2023/04/11 21:51:21;;;;;;;15.20;5.10;;;;;;;6.89;100.00;100058.14;217602;1291;139210;-92
2023/04/11 21:56:21;;;;;;;9.70;4.60;;;;;;;6.87;100.00;100061.30;217967;1291;139282;-94
2023/04/11 22:01:25;;;;;;;12.00;4.70;;;;;;;6.85;100.00;100059.93;217492;1290;138989;-92
2023/04/11 22:06:30;;;;;;;13.60;5.70;;;;;;;6.81;100.00;100058.70;218019;1291;139997;-91
2023/04/11 22:11:30;;;;;;;10.00;4.70;;;;;;;6.77;100.00;100056.34;217600;1291;138835;-91
2023/04/11 22:16:34;;;;;;;10.40;4.30;;;;;;;6.74;100.00;100058.32;218023;1291;138832;-90
2023/04/11 22:21:35;;;;;;;10.80;4.40;;;;;;;6.71;100.00;100061.45;217407;1291;139572;-89
2023/04/11 22:26:41;;;;;;;10.60;4.20;;;;;;;6.68;100.00;100065.30;217743;1290;139554;-91
2023/04/11 22:31:42;;;;;;;8.90;4.40;;;;;;;6.67;100.00;100068.33;217265;1290;138779;-91
2023/04/11 22:36:42;;;;;;;8.30;4.00;;;;;;;6.68;100.00;100067.55;217816;1295;139379;-92
2023/04/11 22:41:46;;;;;;;12.70;4.60;;;;;;;6.67;100.00;100069.17;217230;1290;138754;-92